Página principal
METAR-TAF:

METAR-TAF

Aeroportos :

Auckland, Nova Zelândia

Aeroporto de Auckland

latitude: 37-01S, longitude: 174-48E, altura: 7 m

Observação actual do tempo

O boletim foi feito há 3 horas e 59 minutos, às 00:30 UTC
Vento 17 kt de oeste
Temperatura 23°C
Humidade 69%
Pressão 1007 hPa
Visibilidade 10 km ou mais

METAR: NZAA 220030Z AUTO 26017KT 9999 FEW038/// 23/17 Q1007 TEMPO 6000 SHRA

Hora: 17:29 (04:29 UTC)

Previsão

O boletim foi feito há 5 horas e 23 minutos, às 23:06 UTC
Previsão válida de 22 às 00 UTC a 23 às 00 UTC
Vento 15 kt de oeste com rajadas de 25 kt
Visibilidade 10 km ou mais
Nuvens dispersasa uma altura de 3000 ft
aguaceiros fracos de chuva
Temporariamente
de 22 às 00 UTC a 22 às 03 UTC
Visibilidade: 6000 m
Poucas nuvensa uma altura de 2000 ft, Cumulus congestus.
aguaceiros de chuva
Tornando-se
de 22 às 06 UTC a 22 às 08 UTC
Vento 8 kt de sudoeste

TAF: NZAA 212306Z 2200/2300 26015G25KT 9999 -SHRA SCT030 TEMPO 2200/2203 6000 SHRA FEW020TCU BECMG 2206/2208 22008KT

Observações e previsões do tempo de mais de 4000 aeroportos (mensagens METAR e TAF).

As estações disponíveis são os pontos amarelos e vermelhos sobre o mapa.

Mova o rato sobre o mapa para ver o nome da estação.

Depois clique no ponto para visualizar as observações e previsões meteorológicas.

Para alterar o mapa : clique nos botões verdes com uma cruz preta para aumentar o zoom; no botão verde com uma pitada de zoom; ou nas setas verdes para mapas adjacentes.


METAR-TAF: